createdAt,value
2017-11-04T00:00:24.687Z,6.50
2017-11-04T00:02:51.929Z,6.50
2017-11-04T00:05:18.280Z,6.50
2017-11-04T00:07:44.591Z,6.50
2017-11-04T00:10:10.886Z,6.50
2017-11-04T00:12:37.134Z,6.50
2017-11-04T00:15:03.383Z,6.60
2017-11-04T00:17:29.703Z,6.50
2017-11-04T00:19:56.025Z,6.50
2017-11-04T00:22:22.289Z,6.50
2017-11-04T00:24:48.559Z,6.50
2017-11-04T00:27:14.846Z,6.50
2017-11-04T00:29:41.233Z,6.50
2017-11-04T00:32:07.470Z,6.50
2017-11-04T00:34:33.676Z,6.50
2017-11-04T00:36:59.891Z,6.50
2017-11-04T00:39:26.194Z,6.50
2017-11-04T00:41:52.938Z,6.50
2017-11-04T00:44:19.211Z,6.50
2017-11-04T00:46:45.486Z,6.50
2017-11-04T00:49:11.793Z,6.50
2017-11-04T00:51:38.016Z,6.50
2017-11-04T00:54:05.017Z,6.50
2017-11-04T00:56:31.245Z,6.50
2017-11-04T00:58:57.532Z,6.50
2017-11-04T01:01:23.767Z,6.50
2017-11-04T01:03:50.073Z,6.50
2017-11-04T01:06:16.298Z,6.50
2017-11-04T01:08:44.398Z,6.50
2017-11-04T01:11:10.615Z,6.40
2017-11-04T01:13:36.907Z,6.50
2017-11-04T01:16:03.187Z,6.50
2017-11-04T01:18:29.428Z,6.50
2017-11-04T01:20:55.696Z,6.50
2017-11-04T01:23:22.168Z,6.50
2017-11-04T01:25:49.125Z,6.50
2017-11-04T01:28:15.419Z,6.40
2017-11-04T01:30:41.750Z,6.40
2017-11-04T01:33:08.080Z,6.40
2017-11-04T01:35:34.337Z,6.40
2017-11-04T01:38:00.626Z,6.40
2017-11-04T01:40:26.898Z,6.40
2017-11-04T01:42:53.218Z,6.40
2017-11-04T01:45:19.505Z,6.40
2017-11-04T01:47:45.802Z,6.30
2017-11-04T01:50:12.091Z,6.30
2017-11-04T01:52:38.386Z,6.30
2017-11-04T01:55:04.605Z,6.30
2017-11-04T01:57:30.860Z,6.30
2017-11-04T01:59:57.129Z,6.30
2017-11-04T02:02:23.456Z,6.20
2017-11-04T02:04:49.835Z,6.20
2017-11-04T02:07:18.326Z,6.20
2017-11-04T02:09:44.666Z,6.20
2017-11-04T02:12:11.016Z,6.20
2017-11-04T02:14:38.409Z,6.00
2017-11-04T02:17:04.694Z,6.00
2017-11-04T02:19:30.962Z,6.00
2017-11-04T02:21:57.365Z,6.00
2017-11-04T02:24:23.663Z,6.00
2017-11-04T02:26:49.903Z,6.00
2017-11-04T02:29:16.208Z,6.10
2017-11-04T02:31:42.480Z,5.90
2017-11-04T02:34:09.528Z,5.90
2017-11-04T02:36:35.874Z,5.90
2017-11-04T02:39:02.269Z,5.90
2017-11-04T02:41:28.597Z,5.80
2017-11-04T02:43:54.857Z,5.80
2017-11-04T02:46:21.094Z,5.80
2017-11-04T02:48:47.333Z,5.70
2017-11-04T02:51:13.616Z,5.80
2017-11-04T02:53:40.676Z,5.80
2017-11-04T02:56:07.001Z,5.80
2017-11-04T02:58:33.303Z,5.90
2017-11-04T03:00:59.563Z,5.90
2017-11-04T03:03:25.904Z,5.90
2017-11-04T03:05:52.174Z,5.90
2017-11-04T03:08:18.521Z,5.90
2017-11-04T03:10:44.842Z,6.00
2017-11-04T03:13:11.315Z,5.90
2017-11-04T03:15:37.549Z,5.90
2017-11-04T03:18:03.906Z,5.90
2017-11-04T03:20:30.916Z,6.00
2017-11-04T03:22:57.327Z,5.90
2017-11-04T03:25:23.655Z,6.00
2017-11-04T03:27:49.964Z,6.00
2017-11-04T03:30:16.276Z,6.00
2017-11-04T03:32:42.573Z,6.00
2017-11-04T03:35:08.886Z,6.00
2017-11-04T03:37:35.088Z,6.00
2017-11-04T03:40:01.454Z,6.00
2017-11-04T03:42:27.731Z,6.00
2017-11-04T03:44:54.058Z,6.00
2017-11-04T03:47:20.336Z,6.00
2017-11-04T03:49:46.682Z,6.00
2017-11-04T03:52:13.020Z,6.00
2017-11-04T03:54:39.261Z,6.00
2017-11-04T03:57:06.213Z,6.00
2017-11-04T03:59:32.408Z,6.00
2017-11-04T04:01:58.893Z,6.10
2017-11-04T04:04:26.141Z,6.00
2017-11-04T04:06:53.144Z,6.10
2017-11-04T04:09:20.081Z,6.00
2017-11-04T04:11:46.427Z,6.10
2017-11-04T04:14:12.680Z,6.10
2017-11-04T04:16:38.946Z,6.10
2017-11-04T04:19:05.126Z,6.10
2017-11-04T04:21:31.351Z,6.10
2017-11-04T04:23:57.775Z,6.20
2017-11-04T04:26:24.150Z,6.20
2017-11-04T04:28:50.499Z,6.10
2017-11-04T04:31:17.355Z,6.10
2017-11-04T04:33:43.700Z,6.10
2017-11-04T04:36:10.242Z,6.00
2017-11-04T04:38:36.537Z,5.90
2017-11-04T04:41:02.759Z,5.90
2017-11-04T04:43:29.399Z,5.90
2017-11-04T04:45:55.668Z,5.90
2017-11-04T04:48:22.705Z,5.90
2017-11-04T04:50:49.629Z,6.00
2017-11-04T04:53:15.953Z,5.90
2017-11-04T04:55:42.891Z,6.00
2017-11-04T04:58:09.171Z,5.90
2017-11-04T05:00:35.700Z,5.80
2017-11-04T05:03:01.960Z,5.90
2017-11-04T05:05:28.251Z,6.00
2017-11-04T05:07:54.576Z,6.00
2017-11-04T05:10:21.227Z,6.10
2017-11-04T05:12:47.554Z,6.10
2017-11-04T05:15:13.837Z,6.20
2017-11-04T05:17:40.128Z,6.10
2017-11-04T05:20:07.087Z,6.20
2017-11-04T05:22:33.551Z,6.20
2017-11-04T05:24:59.930Z,6.30
2017-11-04T05:27:26.168Z,6.30
2017-11-04T05:29:52.582Z,6.30
2017-11-04T05:32:18.891Z,6.40
2017-11-04T05:34:45.193Z,6.40
2017-11-04T05:37:11.411Z,6.40
2017-11-04T05:39:37.676Z,6.40
2017-11-04T05:42:04.098Z,6.40
2017-11-04T05:44:30.513Z,6.50
2017-11-04T05:46:57.084Z,6.60
2017-11-04T05:49:23.411Z,6.60
2017-11-04T05:51:49.661Z,6.60
2017-11-04T05:54:16.387Z,6.60
2017-11-04T05:56:42.802Z,6.60
2017-11-04T05:59:09.879Z,6.60
2017-11-04T06:01:36.432Z,6.60
2017-11-04T06:04:02.747Z,6.60
2017-11-04T06:06:29.054Z,6.60
2017-11-04T06:08:55.353Z,6.70
2017-11-04T06:11:21.710Z,6.70
2017-11-04T06:13:48.052Z,6.70
2017-11-04T06:16:14.490Z,6.60
2017-11-04T06:18:40.757Z,6.70
2017-11-04T06:21:07.089Z,6.70
2017-11-04T06:23:33.493Z,6.70
2017-11-04T06:25:59.743Z,6.70
2017-11-04T06:28:26.071Z,6.70
2017-11-04T06:30:52.454Z,6.80
2017-11-04T06:33:18.777Z,6.80
2017-11-04T06:35:45.012Z,6.80
2017-11-04T06:38:16.289Z,6.80
2017-11-04T06:41:05.374Z,6.70
2017-11-04T06:43:31.753Z,6.70
2017-11-04T06:45:59.169Z,6.70
2017-11-04T06:48:25.535Z,6.70
2017-11-04T06:50:54.993Z,6.70
2017-11-04T06:53:21.271Z,6.80
2017-11-04T06:55:47.703Z,6.90
2017-11-04T06:58:14.129Z,6.90
2017-11-04T07:00:41.249Z,6.90
2017-11-04T07:03:08.273Z,7.00
2017-11-04T07:05:34.616Z,7.00
2017-11-04T07:08:00.893Z,7.10
2017-11-04T07:10:27.178Z,7.20
2017-11-04T07:12:53.463Z,7.40
2017-11-04T07:15:19.680Z,7.40
2017-11-04T07:17:46.188Z,7.50
2017-11-04T07:20:13.396Z,7.80
2017-11-04T07:22:39.663Z,7.80
2017-11-04T07:25:05.931Z,8.00
2017-11-04T07:27:32.634Z,8.20
2017-11-04T07:29:59.010Z,8.30
2017-11-04T07:32:25.265Z,8.30
2017-11-04T07:34:52.284Z,8.40
2017-11-04T07:37:18.591Z,8.40
2017-11-04T07:39:44.935Z,8.40
2017-11-04T07:42:11.299Z,8.20
2017-11-04T07:44:49.104Z,8.20
2017-11-04T07:47:15.466Z,8.40
2017-11-04T07:49:42.713Z,8.30
2017-11-04T07:52:09.249Z,8.20
2017-11-04T07:54:35.739Z,8.20
2017-11-04T07:57:02.319Z,8.20
2017-11-04T07:59:29.430Z,8.20
2017-11-04T08:04:34.354Z,8.20
2017-11-04T08:07:00.558Z,8.30
2017-11-04T08:09:26.833Z,8.30
2017-11-04T08:11:53.082Z,8.30
2017-11-04T08:14:19.318Z,8.40
2017-11-04T08:16:45.553Z,8.30
2017-11-04T08:19:11.807Z,8.40
2017-11-04T08:21:38.072Z,8.40
2017-11-04T08:24:04.254Z,8.40
2017-11-04T08:26:31.389Z,8.30
2017-11-04T08:28:58.394Z,8.40
2017-11-04T08:31:24.868Z,8.50
2017-11-04T08:33:51.968Z,8.50
2017-11-04T08:36:19.060Z,8.60
2017-11-04T08:38:45.999Z,8.70
2017-11-04T08:41:13.896Z,8.80
2017-11-04T08:43:40.144Z,8.80
2017-11-04T08:46:06.461Z,8.80
2017-11-04T08:48:32.769Z,8.80
2017-11-04T08:50:59.078Z,8.80
2017-11-04T08:53:26.651Z,8.90
2017-11-04T08:55:52.993Z,8.90
2017-11-04T08:58:19.255Z,8.90
2017-11-04T09:00:45.590Z,9.00
2017-11-04T09:03:11.826Z,9.00
2017-11-04T09:05:38.136Z,9.00
2017-11-04T09:08:04.410Z,9.10
2017-11-04T09:10:30.706Z,9.10
2017-11-04T09:12:57.665Z,9.10
2017-11-04T09:15:24.102Z,9.10
2017-11-04T09:17:50.347Z,9.10
2017-11-04T09:20:16.645Z,9.10
2017-11-04T09:22:42.834Z,9.20
2017-11-04T09:25:09.063Z,9.20
2017-11-04T09:27:35.386Z,9.20
2017-11-04T09:30:01.655Z,9.20
2017-11-04T09:32:27.865Z,9.20
2017-11-04T09:34:54.383Z,9.30
2017-11-04T09:37:20.694Z,9.30
2017-11-04T09:39:47.140Z,9.20
2017-11-04T09:42:13.861Z,9.30
2017-11-04T09:44:40.185Z,9.30
2017-11-04T09:47:06.531Z,9.30
2017-11-04T09:49:32.847Z,9.30
2017-11-04T09:51:59.169Z,9.40
2017-11-04T09:54:25.660Z,9.40
2017-11-04T09:56:52.631Z,9.40
2017-11-04T09:59:18.919Z,9.40
2017-11-04T10:01:48.854Z,9.40
2017-11-04T10:04:15.152Z,9.50
2017-11-04T10:06:41.750Z,9.50
2017-11-04T10:09:08.210Z,9.60
2017-11-04T10:11:34.721Z,9.80
2017-11-04T10:14:01.220Z,9.90
2017-11-04T10:16:27.630Z,9.90
2017-11-04T10:18:54.101Z,10.00
2017-11-04T10:21:21.630Z,10.00
2017-11-04T10:23:48.014Z,9.90
2017-11-04T10:26:14.678Z,10.10
2017-11-04T10:28:41.492Z,10.20
2017-11-04T10:31:07.981Z,10.30
2017-11-04T10:33:34.568Z,10.30
2017-11-04T10:36:01.048Z,10.50
2017-11-04T10:38:27.451Z,10.70
2017-11-04T10:40:53.945Z,10.80
2017-11-04T10:43:20.441Z,10.90
2017-11-04T10:45:46.836Z,11.00
2017-11-04T10:48:13.355Z,11.20
2017-11-04T10:50:39.710Z,11.30
2017-11-04T10:53:06.205Z,11.40
2017-11-04T10:55:33.444Z,11.60
2017-11-04T10:58:03.524Z,11.60
2017-11-04T11:00:30.248Z,11.80
2017-11-04T11:02:56.753Z,12.00
2017-11-04T11:05:23.180Z,12.20
2017-11-04T11:07:49.802Z,12.30
2017-11-04T11:10:16.227Z,12.50
2017-11-04T11:12:43.258Z,12.70
2017-11-04T11:15:09.871Z,13.00
2017-11-04T11:17:36.287Z,13.20
2017-11-04T11:20:02.864Z,13.40
2017-11-04T11:22:30.041Z,13.40
2017-11-04T11:24:56.507Z,13.40
2017-11-04T11:27:22.918Z,13.40
2017-11-04T11:29:49.273Z,13.50
2017-11-04T11:32:15.836Z,13.40
2017-11-04T11:34:42.280Z,13.30
2017-11-04T11:37:09.636Z,13.40
2017-11-04T11:39:36.004Z,13.40
2017-11-04T11:42:02.374Z,13.40
2017-11-04T11:44:28.844Z,13.40
2017-11-04T11:46:55.564Z,13.50
2017-11-04T11:49:22.036Z,13.40
2017-11-04T11:51:49.114Z,13.40
2017-11-04T11:54:15.661Z,13.60
2017-11-04T11:56:42.574Z,13.70
2017-11-04T11:59:24.898Z,13.60
2017-11-04T12:01:51.512Z,13.60
2017-11-04T12:04:18.505Z,13.70
2017-11-04T12:06:44.798Z,13.70
2017-11-04T12:09:11.130Z,13.70
2017-11-04T12:11:37.394Z,13.70
2017-11-04T12:14:03.698Z,13.70
2017-11-04T12:16:30.048Z,13.80
2017-11-04T12:18:57.122Z,13.80
2017-11-04T12:21:23.361Z,13.80
2017-11-04T12:23:49.708Z,13.80
2017-11-04T12:26:16.701Z,14.10
2017-11-04T12:28:43.079Z,14.10
2017-11-04T12:31:09.377Z,14.20
2017-11-04T12:33:35.756Z,14.20
2017-11-04T12:36:02.045Z,14.30
2017-11-04T12:38:28.266Z,14.20
2017-11-04T12:40:54.526Z,14.20
2017-11-04T12:43:21.525Z,14.20
2017-11-04T12:45:47.798Z,14.20
2017-11-04T12:48:14.100Z,14.20
2017-11-04T12:50:41.311Z,14.30
2017-11-04T12:53:07.597Z,14.30
2017-11-04T12:55:34.717Z,14.30
2017-11-04T12:58:01.001Z,14.40
2017-11-04T13:00:27.971Z,14.20
2017-11-04T13:02:54.272Z,14.20
2017-11-04T13:05:20.549Z,14.30
2017-11-04T13:07:46.797Z,14.30
2017-11-04T13:10:13.313Z,14.40
2017-11-04T13:12:39.549Z,14.40
2017-11-04T13:15:18.075Z,14.40
2017-11-04T13:17:46.129Z,14.30
2017-11-04T13:20:12.636Z,14.30
2017-11-04T13:22:38.973Z,14.30
2017-11-04T13:25:05.297Z,14.30
2017-11-04T13:27:31.590Z,14.20
2017-11-04T13:29:58.062Z,14.20
2017-11-04T13:32:24.343Z,14.20
2017-11-04T13:34:50.686Z,14.10
2017-11-04T13:37:17.727Z,13.90
2017-11-04T13:39:44.045Z,13.90
2017-11-04T13:42:10.432Z,14.00
2017-11-04T13:44:36.653Z,14.00
2017-11-04T13:47:03.074Z,13.90
2017-11-04T13:49:30.154Z,13.90
2017-11-04T13:51:56.395Z,13.90
2017-11-04T13:54:22.670Z,13.80
2017-11-04T13:56:50.972Z,13.80
2017-11-04T13:59:17.253Z,13.80
2017-11-04T14:01:47.937Z,13.90
2017-11-04T14:04:14.454Z,13.80
2017-11-04T14:06:41.779Z,13.90
2017-11-04T14:09:08.082Z,13.80
2017-11-04T14:11:34.341Z,13.80
2017-11-04T14:14:00.630Z,13.80
2017-11-04T14:16:27.411Z,13.80
2017-11-04T14:19:07.038Z,13.80
2017-11-04T14:21:33.302Z,13.80
2017-11-04T14:24:00.292Z,13.70
2017-11-04T14:26:32.626Z,13.70
2017-11-04T14:28:59.025Z,13.70
2017-11-04T14:31:25.241Z,13.70
2017-11-04T14:33:51.568Z,13.70
2017-11-04T14:36:17.800Z,13.70
2017-11-04T14:38:45.101Z,13.70
2017-11-04T14:41:11.385Z,13.70
2017-11-04T14:43:37.661Z,13.60
2017-11-04T14:46:04.008Z,13.60
2017-11-04T14:48:30.278Z,13.60
2017-11-04T14:50:56.710Z,13.50
2017-11-04T14:53:23.107Z,13.50
2017-11-04T14:55:49.565Z,13.50
2017-11-04T14:58:15.967Z,13.50
2017-11-04T15:00:42.320Z,13.50
2017-11-04T15:03:08.649Z,13.50
2017-11-04T15:05:35.921Z,13.50
2017-11-04T15:08:02.321Z,13.50
2017-11-04T15:10:28.648Z,13.50
2017-11-04T15:12:54.875Z,13.50
2017-11-04T15:15:21.188Z,13.50
2017-11-04T15:17:47.550Z,13.50
2017-11-04T15:20:14.565Z,13.40
2017-11-04T15:22:41.217Z,13.40
2017-11-04T15:25:07.506Z,13.50
2017-11-04T15:27:33.884Z,13.50
2017-11-04T15:30:00.194Z,13.40
2017-11-04T15:32:26.421Z,13.30
2017-11-04T15:34:52.690Z,13.30
2017-11-04T15:37:18.957Z,13.30
2017-11-04T15:39:45.184Z,13.30
2017-11-04T15:42:11.467Z,13.30
2017-11-04T15:44:37.736Z,13.20
2017-11-04T15:47:04.079Z,13.20
2017-11-04T15:49:30.442Z,13.10
2017-11-04T15:51:56.903Z,13.00
2017-11-04T15:54:23.174Z,12.90
2017-11-04T15:56:49.486Z,12.90
2017-11-04T15:59:15.825Z,12.90
2017-11-04T16:01:42.069Z,12.80
2017-11-04T16:04:09.250Z,12.80
2017-11-04T16:06:35.535Z,12.70
2017-11-04T16:09:01.877Z,12.70
2017-11-04T16:11:28.138Z,12.60
2017-11-04T16:13:54.430Z,12.60
2017-11-04T16:16:20.835Z,12.60
2017-11-04T16:18:48.404Z,12.50
2017-11-04T16:21:14.927Z,12.40
2017-11-04T16:23:41.263Z,12.40
2017-11-04T16:26:09.229Z,12.40
2017-11-04T16:28:35.486Z,12.20
2017-11-04T16:31:01.783Z,12.20
2017-11-04T16:33:28.092Z,12.20
2017-11-04T16:35:54.463Z,12.20
2017-11-04T16:38:20.902Z,12.00
2017-11-04T16:40:47.506Z,12.00
2017-11-04T16:43:15.374Z,11.90
2017-11-04T16:45:41.927Z,11.80
2017-11-04T16:48:12.389Z,11.80
2017-11-04T16:50:38.972Z,11.80
2017-11-04T16:53:05.342Z,11.70
2017-11-04T16:55:31.637Z,11.70
2017-11-04T16:57:57.899Z,11.70
2017-11-04T17:00:24.225Z,11.60
2017-11-04T17:02:52.128Z,11.50
2017-11-04T17:05:18.392Z,11.40
2017-11-04T17:07:44.620Z,11.30
2017-11-04T17:10:11.092Z,11.30
2017-11-04T17:12:38.118Z,11.20
2017-11-04T17:15:04.347Z,11.20
2017-11-04T17:17:30.621Z,11.20
2017-11-04T17:19:56.997Z,11.10
2017-11-04T17:22:23.345Z,11.10
2017-11-04T17:24:49.655Z,11.10
2017-11-04T17:27:15.989Z,11.00
2017-11-04T17:29:42.447Z,11.00
2017-11-04T17:32:08.717Z,11.00
2017-11-04T17:34:34.942Z,10.90
2017-11-04T17:37:01.177Z,10.90
2017-11-04T17:39:27.508Z,10.80
2017-11-04T17:41:54.012Z,10.80
2017-11-04T17:44:20.268Z,10.80
2017-11-04T17:46:46.512Z,10.70
2017-11-04T17:49:12.764Z,10.60
2017-11-04T17:51:40.728Z,10.60
2017-11-04T17:54:07.074Z,10.60
2017-11-04T17:56:33.355Z,10.60
2017-11-04T17:58:59.593Z,10.50
2017-11-04T18:01:25.840Z,10.40
2017-11-04T18:03:53.353Z,10.40
2017-11-04T18:06:19.698Z,10.40
2017-11-04T18:08:46.093Z,10.30
2017-11-04T18:11:14.607Z,10.20
2017-11-04T18:13:40.829Z,10.10
2017-11-04T18:16:07.085Z,10.10
2017-11-04T18:18:33.350Z,10.10
2017-11-04T18:20:59.622Z,10.10
2017-11-04T18:23:26.004Z,10.10
2017-11-04T18:25:52.302Z,10.10
2017-11-04T18:28:18.836Z,10.00
2017-11-04T18:30:45.174Z,10.00
2017-11-04T18:33:11.673Z,10.00
2017-11-04T18:35:37.931Z,10.00
2017-11-04T18:38:05.097Z,9.90
2017-11-04T18:40:32.303Z,9.90
2017-11-04T18:42:58.656Z,9.90
2017-11-04T18:45:24.900Z,9.90
2017-11-04T18:47:51.271Z,9.80
2017-11-04T18:50:17.539Z,9.80
2017-11-04T18:52:43.885Z,9.70
2017-11-04T18:55:10.110Z,9.70
2017-11-04T18:57:36.534Z,9.60
2017-11-04T19:00:02.912Z,9.50
2017-11-04T19:02:29.164Z,9.50
2017-11-04T19:04:55.605Z,9.50
2017-11-04T19:07:22.132Z,9.40
2017-11-04T19:09:48.406Z,9.40
2017-11-04T19:12:14.762Z,9.40
2017-11-04T19:14:41.105Z,9.30
2017-11-04T19:17:08.412Z,9.30
2017-11-04T19:19:34.630Z,9.30
2017-11-04T19:22:01.316Z,9.30
2017-11-04T19:24:27.641Z,9.30
2017-11-04T19:26:53.868Z,9.20
2017-11-04T19:29:20.088Z,9.20
2017-11-04T19:31:46.384Z,9.20
2017-11-04T19:34:12.684Z,9.10
2017-11-04T19:36:38.974Z,9.20
2017-11-04T19:39:05.386Z,9.10
2017-11-04T19:41:31.709Z,9.10
2017-11-04T19:43:58.031Z,9.10
2017-11-04T19:46:24.329Z,9.20
2017-11-04T19:48:50.599Z,9.10
2017-11-04T19:51:16.888Z,9.10
2017-11-04T19:53:43.414Z,9.10
2017-11-04T19:56:09.665Z,9.10
2017-11-04T19:58:35.981Z,9.00
2017-11-04T20:01:02.975Z,9.00
2017-11-04T20:03:29.285Z,9.00
2017-11-04T20:05:56.556Z,9.00
2017-11-04T20:08:22.868Z,8.90
2017-11-04T20:10:49.155Z,8.80
2017-11-04T20:13:16.050Z,8.70
2017-11-04T20:15:42.288Z,8.70
2017-11-04T20:18:08.577Z,8.70
2017-11-04T20:20:35.828Z,8.60
2017-11-04T20:23:03.098Z,8.70
2017-11-04T20:25:29.489Z,8.70
2017-11-04T20:27:55.763Z,8.60
2017-11-04T20:30:22.049Z,8.50
2017-11-04T20:32:48.273Z,8.50
2017-11-04T20:35:14.544Z,8.50
2017-11-04T20:37:40.746Z,8.40
2017-11-04T20:40:08.208Z,8.40
2017-11-04T20:42:34.431Z,8.40
2017-11-04T20:45:00.712Z,8.40
2017-11-04T20:47:26.985Z,8.40
2017-11-04T20:49:55.285Z,8.30
2017-11-04T20:52:21.629Z,8.30
2017-11-04T20:54:47.913Z,8.30
2017-11-04T20:57:15.205Z,8.30
2017-11-04T20:59:41.434Z,8.20
2017-11-04T21:02:07.752Z,8.20
2017-11-04T21:04:34.038Z,8.20
2017-11-04T21:07:02.367Z,8.30
2017-11-04T21:09:28.604Z,8.20
2017-11-04T21:11:55.078Z,8.30
2017-11-04T21:14:21.401Z,8.20
2017-11-04T21:16:47.704Z,8.20
2017-11-04T21:19:14.724Z,8.00
2017-11-04T21:21:41.015Z,8.00
2017-11-04T21:24:07.408Z,8.00
2017-11-04T21:26:33.732Z,8.10
2017-11-04T21:29:00.039Z,8.10
2017-11-04T21:31:26.449Z,8.00
2017-11-04T21:33:52.788Z,8.00
2017-11-04T21:36:19.049Z,7.90
2017-11-04T21:38:45.455Z,7.90
2017-11-04T21:41:11.733Z,7.90
2017-11-04T21:43:37.993Z,7.90
2017-11-04T21:46:04.444Z,7.80
2017-11-04T21:48:30.845Z,7.80
2017-11-04T21:50:57.133Z,7.80
2017-11-04T21:53:23.437Z,7.70
2017-11-04T21:55:49.756Z,7.80
2017-11-04T21:58:16.027Z,7.70
2017-11-04T22:00:42.216Z,7.70
2017-11-04T22:03:08.506Z,7.80
2017-11-04T22:05:35.571Z,7.80
2017-11-04T22:08:01.905Z,7.80
2017-11-04T22:10:28.158Z,7.80
2017-11-04T22:12:54.345Z,7.80
2017-11-04T22:15:20.557Z,7.70
2017-11-04T22:17:46.802Z,7.70
2017-11-04T22:20:13.176Z,7.70
2017-11-04T22:22:39.538Z,7.70
2017-11-04T22:25:05.765Z,7.70
2017-11-04T22:27:31.978Z,7.70
2017-11-04T22:29:58.209Z,7.60
2017-11-04T22:32:25.088Z,7.70
2017-11-04T22:34:51.300Z,7.60
2017-11-04T22:37:17.630Z,7.60
2017-11-04T22:39:43.887Z,7.60
2017-11-04T22:42:10.108Z,7.60
2017-11-04T22:44:37.110Z,7.60
2017-11-04T22:47:03.433Z,7.60
2017-11-04T22:49:29.737Z,7.60
2017-11-04T22:51:55.987Z,7.50
2017-11-04T22:54:22.219Z,7.50
2017-11-04T22:56:48.519Z,7.40
2017-11-04T22:59:14.837Z,7.50
2017-11-04T23:01:41.101Z,7.50
2017-11-04T23:04:07.333Z,7.40
2017-11-04T23:06:34.384Z,7.40
2017-11-04T23:09:00.710Z,7.40
2017-11-04T23:11:27.750Z,7.30
2017-11-04T23:13:54.034Z,7.30
2017-11-04T23:16:20.247Z,7.30
2017-11-04T23:18:46.473Z,7.30
2017-11-04T23:21:12.676Z,7.30
2017-11-04T23:23:39.181Z,7.30
2017-11-04T23:26:05.472Z,7.30
2017-11-04T23:28:32.314Z,7.20
2017-11-04T23:30:58.746Z,7.20
2017-11-04T23:33:25.113Z,7.20
2017-11-04T23:35:51.426Z,7.10
2017-11-04T23:38:17.812Z,7.20
2017-11-04T23:40:44.857Z,7.20
2017-11-04T23:43:11.129Z,7.20
2017-11-04T23:45:37.412Z,7.20
2017-11-04T23:48:03.709Z,7.20
2017-11-04T23:50:30.048Z,7.20
2017-11-04T23:52:56.306Z,7.10
2017-11-04T23:55:22.530Z,7.10
2017-11-04T23:57:48.773Z,7.10
